Baltic Marshall — C4KD2 — position and weather

sailwx.info

Track history (hours):
 
Tides and Currents Weather Stations Pressure Air Temp Water Temp Dewpoint Dewpoint Depression Visibility Wind Speed Wind Dir Waves Ship Positions

Baltic Marshall

Last reported at 2015-Mar-02 01:15 UTC. Time now 2015-Mar-02 05:09 UTC.
Position N 59°30' E 024°58'.

Length 183 m; draft 7 m.

Type: Tanker. MMSI: 212118000.

Date/timePositionNaut miles runAvg speedWind from/ knotsBaromVisibWave heightAir tempDewpointWater temp
2015-Mar-02 01:15N 59°30' E 024°58'5 7.6
2015-Mar-02 00:34N 59°35' E 024°54'1312.9
2015-Mar-01 23:34N 59°43' E 024°34'1714.3
2015-Mar-01 22:24N 59°40' E 024°01'1315.0
2015-Mar-01 21:33N 59°35' E 023°38'1814.9
2015-Mar-01 20:21N 59°29' E 023°04'33614.7
2015-Feb-28 21:30N 55°39' E 015°28'1415.0
2015-Feb-28 20:33N 55°32' E 015°06'1514.6
2015-Feb-28 19:33N 55°25' E 014°44'1514.6
2015-Feb-28 18:34N 55°15' E 014°26'1413.8
2015-Feb-28 17:33N 55°10' E 014°03'1514.7
2015-Feb-28 16:33N 55°11' E 013°37'1514.9
2015-Feb-28 15:34N 55°13' E 013°12'1514.5
2015-Feb-28 14:33N 55°16' E 012°47'1110.5
2015-Feb-28 13:33N 55°25' E 012°40'1110.9
2015-Feb-28 12:33N 55°36' E 012°42'10 9.8
2015-Feb-28 11:33N 55°46' E 012°41'1313.2
2015-Feb-28 10:33N 55°59' E 012°38'1111.2
2015-Feb-28 09:33N 56°09' E 012°27'1414.4
2015-Feb-28 08:34N 56°17' E 012°05'1414.0
2015-Feb-28 07:33N 56°30' E 011°59'1514.6
2015-Feb-28 06:33N 56°44' E 011°53'1414.3
2015-Feb-28 05:33N 56°58' E 011°44'1414.2
2015-Feb-28 04:34N 57°11' E 011°35'1514.5
2015-Feb-28 03:33N 57°25' E 011°26'1413.5
2015-Feb-28 02:32N 57°35' E 011°09'1414.5
2015-Feb-28 01:33N 57°44' E 010°48'1615.2
2015-Feb-28 00:31N 57°47' E 010°20'5215.0
2015-Feb-27 21:05N 57°28' E 008°50'815.4
2015-Feb-27 20:31N 57°23' E 008°37'3214.9
2015-Feb-27 18:21N 57°00' E 007°56'10314.6
2015-Feb-27 11:17N 55°31' E 006°22'8314.2
2015-Feb-27 05:28N 54°19' E 005°09'1314.1
2015-Feb-27 04:33N 54°09' E 004°57'1514.5
2015-Feb-27 03:33N 53°58' E 004°40'12214.3
2015-Feb-26 19:03N 52°09' E 003°08'4014.6
2015-Feb-26 16:20N 51°39' E 002°27'1214.7
2015-Feb-26 15:33N 51°30' E 002°15'1413.9
2015-Feb-26 14:33N 51°17' E 002°07'1413.8
2015-Feb-26 13:33N 51°08' E 001°51'1413.9
2015-Feb-26 12:33N 50°58' E 001°35'1414.0
2015-Feb-26 11:32N 50°46' E 001°23'2913.5
2015-Feb-26 09:21N 50°28' E 000°47'  
2015-Feb-23 06:32N 39°15' W 009°51'1212.8
2015-Feb-23 05:33N 39°02' W 009°52'1313.0
2015-Feb-23 04:33N 38°49' W 009°52'1312.9
2015-Feb-23 03:33N 38°37' W 009°50'1312.7
2015-Feb-23 02:33N 38°24' W 009°46'1312.6
2015-Feb-23 01:33N 38°12' W 009°43'1312.8
2015-Feb-23 00:33N 37°60' W 009°39'1312.8
2015-Feb-22 23:33N 37°47' W 009°35'1312.9
2015-Feb-22 22:33N 37°35' W 009°31'1313.1
2015-Feb-22 21:32N 37°21' W 009°28'5611.3
2015-Feb-22 16:32N 36°37' W 008°44'15812.1
2015-Feb-22 03:33N 35°58' W 005°35'1110.8
2015-Feb-22 02:33N 36°04' W 005°24'4 4.1
2015-Feb-22 01:34N 36°08' W 005°22'0 0.1
2015-Feb-22 00:22N 36°08' W 005°22'0 0.0
2015-Feb-21 23:22N 36°08' W 005°22'0 0.1
2015-Feb-21 22:25N 36°08' W 005°22'0 0.0
2015-Feb-21 20:25N 36°08' W 005°22'0 0.1
2015-Feb-21 19:28N 36°08' W 005°22'0 0.2
2015-Feb-21 18:13N 36°08' W 005°22'3 4.6
2015-Feb-21 17:33N 36°05' W 005°20'7 6.5
2015-Feb-21 16:33N 36°06' W 005°12'6 0.3
2015-Feb-20 16:32N 36°09' W 005°06'1 0.7
2015-Feb-20 15:33N 36°10' W 005°05'2 1.2
2015-Feb-20 14:18N 36°10' W 005°03'4 0.5
2015-Feb-20 07:05N 36°11' W 005°08'2 3.1
2015-Feb-20 06:32N 36°12' W 005°09'  
Track history (hours):
 
Tides and Currents Weather Stations Pressure Air Temp Water Temp Dewpoint Dewpoint Depression Visibility Wind Speed Wind Dir Waves Ship Positions

Baltic Marshall

Last reported at 2015-Mar-02 01:15 UTC. Time now 2015-Mar-02 05:09 UTC.
Position N 59°30' E 024°58'.

Length 183 m; draft 7 m.

Type: Tanker. MMSI: 212118000.

Date/timePositionNaut miles runAvg speedWind from/ knotsBaromVisibWave heightAir tempDewpointWater temp
2015-Mar-02 01:15N 59°30' E 024°58'5 7.6
2015-Mar-02 00:34N 59°35' E 024°54'1312.9
2015-Mar-01 23:34N 59°43' E 024°34'1714.3
2015-Mar-01 22:24N 59°40' E 024°01'1315.0
2015-Mar-01 21:33N 59°35' E 023°38'1814.9
2015-Mar-01 20:21N 59°29' E 023°04'33614.7
2015-Feb-28 21:30N 55°39' E 015°28'1415.0
2015-Feb-28 20:33N 55°32' E 015°06'1514.6
2015-Feb-28 19:33N 55°25' E 014°44'1514.6
2015-Feb-28 18:34N 55°15' E 014°26'1413.8
2015-Feb-28 17:33N 55°10' E 014°03'1514.7
2015-Feb-28 16:33N 55°11' E 013°37'1514.9
2015-Feb-28 15:34N 55°13' E 013°12'1514.5
2015-Feb-28 14:33N 55°16' E 012°47'1110.5
2015-Feb-28 13:33N 55°25' E 012°40'1110.9
2015-Feb-28 12:33N 55°36' E 012°42'10 9.8
2015-Feb-28 11:33N 55°46' E 012°41'1313.2
2015-Feb-28 10:33N 55°59' E 012°38'1111.2
2015-Feb-28 09:33N 56°09' E 012°27'1414.4
2015-Feb-28 08:34N 56°17' E 012°05'1414.0
2015-Feb-28 07:33N 56°30' E 011°59'1514.6
2015-Feb-28 06:33N 56°44' E 011°53'1414.3
2015-Feb-28 05:33N 56°58' E 011°44'1414.2
2015-Feb-28 04:34N 57°11' E 011°35'1514.5
2015-Feb-28 03:33N 57°25' E 011°26'1413.5
2015-Feb-28 02:32N 57°35' E 011°09'1414.5
2015-Feb-28 01:33N 57°44' E 010°48'1615.2
2015-Feb-28 00:31N 57°47' E 010°20'5215.0
2015-Feb-27 21:05N 57°28' E 008°50'815.4
2015-Feb-27 20:31N 57°23' E 008°37'3214.9
2015-Feb-27 18:21N 57°00' E 007°56'10314.6
2015-Feb-27 11:17N 55°31' E 006°22'8314.2
2015-Feb-27 05:28N 54°19' E 005°09'1314.1
2015-Feb-27 04:33N 54°09' E 004°57'1514.5
2015-Feb-27 03:33N 53°58' E 004°40'12214.3
2015-Feb-26 19:03N 52°09' E 003°08'4014.6
2015-Feb-26 16:20N 51°39' E 002°27'1214.7
2015-Feb-26 15:33N 51°30' E 002°15'1413.9
2015-Feb-26 14:33N 51°17' E 002°07'1413.8
2015-Feb-26 13:33N 51°08' E 001°51'1413.9
2015-Feb-26 12:33N 50°58' E 001°35'1414.0
2015-Feb-26 11:32N 50°46' E 001°23'2913.5
2015-Feb-26 09:21N 50°28' E 000°47'  
2015-Feb-23 06:32N 39°15' W 009°51'1212.8
2015-Feb-23 05:33N 39°02' W 009°52'1313.0
2015-Feb-23 04:33N 38°49' W 009°52'1312.9
2015-Feb-23 03:33N 38°37' W 009°50'1312.7
2015-Feb-23 02:33N 38°24' W 009°46'1312.6
2015-Feb-23 01:33N 38°12' W 009°43'1312.8
2015-Feb-23 00:33N 37°60' W 009°39'1312.8
2015-Feb-22 23:33N 37°47' W 009°35'1312.9
2015-Feb-22 22:33N 37°35' W 009°31'1313.1
2015-Feb-22 21:32N 37°21' W 009°28'5611.3
2015-Feb-22 16:32N 36°37' W 008°44'15812.1
2015-Feb-22 03:33N 35°58' W 005°35'1110.8
2015-Feb-22 02:33N 36°04' W 005°24'4 4.1
2015-Feb-22 01:34N 36°08' W 005°22'0 0.1
2015-Feb-22 00:22N 36°08' W 005°22'0 0.0
2015-Feb-21 23:22N 36°08' W 005°22'0 0.1
2015-Feb-21 22:25N 36°08' W 005°22'0 0.0
2015-Feb-21 20:25N 36°08' W 005°22'0 0.1
2015-Feb-21 19:28N 36°08' W 005°22'0 0.2
2015-Feb-21 18:13N 36°08' W 005°22'3 4.6
2015-Feb-21 17:33N 36°05' W 005°20'7 6.5
2015-Feb-21 16:33N 36°06' W 005°12'6 0.3
2015-Feb-20 16:32N 36°09' W 005°06'1 0.7
2015-Feb-20 15:33N 36°10' W 005°05'2 1.2
2015-Feb-20 14:18N 36°10' W 005°03'4 0.5
2015-Feb-20 07:05N 36°11' W 005°08'2 3.1
2015-Feb-20 06:32N 36°12' W 005°09'  

Dump ship's entire track history